Cidra, PR (00739)

1:10 PM AST on July 24, 2016 (GMT -0400)
Sabanera, Cidra, P.R. | | Change Station

Elev 1368 ft 18.19 °N, 66.11 °W | Updated 13 minutes ago

Scattered Clouds
Scattered Clouds
86.4 °F
Feels Like 93 °F
N
8.3
Wind Variable Wind from SW

Today
High -- | Low -- °F
--% Chance of Precip.
Yesterday
High -- | Low -- °F
Precip. -- in
Pressure 30.01 in
Visibility 10.0 miles
Clouds Few 3800 ft
Scattered Clouds 8500 ft
Heat Index 93 °F
Dew Point 73 °F
Humidity 64%
Rainfall 0.00 in
Snow Depth Not available.
6:00 AM 7:01 PM
Waning Gibbous, 75% visible
METAR TJSJ 241656Z 07016KT 10SM FEW038 SCT085 31/24 A3001 RMK AO2 SLP160 VCSH NW T03110239 $
Pressure 30.01 in
Visibility 10.0 miles
Clouds Few 3800 ft
Scattered Clouds 8500 ft
Heat Index 93 °F
Dew Point 73 °F
Humidity 64%
Rainfall 0.00 in
Snow Depth Not available.
6:00 AM 7:01 PM
Waning Gibbous, 75% visible
METAR TJSJ 241656Z 07016KT 10SM FEW038 SCT085 31/24 A3001 RMK AO2 SLP160 VCSH NW T03110239 $

10-Day Weather Forecast

Almanac

Astronomy

Jul. 24, 2016 Rise Set
Actual Time
Civil Twilight
Nautical Twilight
Astronomical Twilight
Moon
Length of Visible Light
Length of Day
Tomorrow will be .
, % of the Moon is Illuminated

Today's Extremes

State Highs State Lows

Community

WunderPhotos

Upload Photos

1,927,124 photos uploaded!

WunderBlog® & News

Nearby

Air Quality

  Air Quality AQ Index Pollutant
Not available.

Snow Depth

Station Depth Elevation

Earthquake Activity

City Distance Mag. Time & Date
Minimum magnitude displayed is 2.5.

Coastal Water Temperatures

Place Temperature

Stations

Nearby Weather Stations

Station Location Temp. Windchill Dew Point Humidity Wind Precip. Elev Updated Type
                   

Watches & Warnings

There are currently no watches in effect.